Terminal Aerodrome Forecast
Issued by NWS

Home | Current Version | Previous Version | Text Only | Print | Product List | Glossary Off
Versions: 1 2 3 4 5 6 7 8 9 10 11 12 13 14 15 16 17 18 19

526
FTUS43 KGRB 141722
TAFAUW
TAF
KAUW 141722Z 1418/1518 18009KT P6SM BKN035
     FM142300 15008KT P6SM -SN SCT025 OVC035
      TEMPO 1500/1502 4SM -SN BKN025
     FM150200 14008KT 1 1/2SM -SN OVC015
     FM150900 11004KT 2SM -SN OVC010
     FM151300 07005KT 1 1/2SM -SN OVC012
     FM151600 05005KT 1 1/2SM -SN OVC015=

USA.gov is the U.S. government's official web portal to all federal, state and local government web resources and services.